createdAt,value
2023-04-17T00:02:19.342Z,3.73
2023-04-17T00:05:21.113Z,3.71
2023-04-17T00:08:22.709Z,3.65
2023-04-17T00:11:24.442Z,3.60
2023-04-17T00:14:25.985Z,3.51
2023-04-17T00:17:27.674Z,3.47
2023-04-17T00:20:29.478Z,3.45
2023-04-17T00:23:30.987Z,3.49
2023-04-17T00:26:32.651Z,3.54
2023-04-17T00:29:34.268Z,3.59
2023-04-17T00:32:35.994Z,3.63
2023-04-17T00:35:37.733Z,3.69
2023-04-17T00:38:39.833Z,3.75
2023-04-17T00:41:41.435Z,3.78
2023-04-17T00:44:42.978Z,3.80
2023-04-17T00:47:44.718Z,3.80
2023-04-17T00:50:46.311Z,3.80
2023-04-17T00:53:48.231Z,3.75
2023-04-17T00:56:51.198Z,3.68
2023-04-17T00:59:53.098Z,3.56
2023-04-17T01:02:57.200Z,3.45
2023-04-17T01:05:59.363Z,3.40
2023-04-17T01:09:01.319Z,3.38
2023-04-17T01:12:24.295Z,3.36
2023-04-17T01:15:26.116Z,3.33
2023-04-17T01:18:27.893Z,3.33
2023-04-17T01:21:29.698Z,3.31
2023-04-17T01:24:31.258Z,3.31
2023-04-17T01:27:32.871Z,3.29
2023-04-17T01:30:34.432Z,3.27
2023-04-17T01:33:36.061Z,3.25
2023-04-17T01:36:37.700Z,3.21
2023-04-17T01:39:39.223Z,3.15
2023-04-17T01:42:40.955Z,3.08
2023-04-17T01:45:42.586Z,3.05
2023-04-17T01:48:44.183Z,3.09
2023-04-17T01:51:45.837Z,3.16
2023-04-17T01:54:47.436Z,3.25
2023-04-17T01:57:49.916Z,3.29
2023-04-17T02:00:51.596Z,3.32
2023-04-17T02:03:53.215Z,3.32
2023-04-17T02:06:55.166Z,3.28
2023-04-17T02:09:56.672Z,3.25
2023-04-17T02:12:58.402Z,3.25
2023-04-17T02:15:59.918Z,3.25
2023-04-17T02:19:01.605Z,3.25
2023-04-17T02:22:03.192Z,3.25
2023-04-17T02:25:05.149Z,3.25
2023-04-17T02:28:06.800Z,3.23
2023-04-17T02:31:08.817Z,3.19
2023-04-17T02:34:10.608Z,3.11
2023-04-17T02:37:12.324Z,3.02
2023-04-17T02:40:14.932Z,2.97
2023-04-17T02:43:16.592Z,2.93
2023-04-17T02:46:18.215Z,2.90
2023-04-17T02:49:19.926Z,2.89
2023-04-17T02:52:22.042Z,2.86
2023-04-17T02:55:23.570Z,2.83
2023-04-17T02:58:25.253Z,2.78
2023-04-17T03:01:27.024Z,2.72
2023-04-17T03:04:28.575Z,2.79
2023-04-17T03:07:30.168Z,2.87
2023-04-17T03:10:31.888Z,2.94
2023-04-17T03:13:34.917Z,2.93
2023-04-17T03:16:36.654Z,2.93
2023-04-17T03:19:38.368Z,2.94
2023-04-17T03:22:39.944Z,2.96
2023-04-17T03:25:41.711Z,3.02
2023-04-17T03:28:43.228Z,3.07
2023-04-17T03:31:45.046Z,3.13
2023-04-17T03:34:47.168Z,3.23
2023-04-17T03:37:48.824Z,3.33
2023-04-17T03:40:50.522Z,3.38
2023-04-17T03:43:52.146Z,3.45
2023-04-17T03:46:53.814Z,3.56
2023-04-17T03:49:55.718Z,3.68
2023-04-17T03:52:57.535Z,3.74
2023-04-17T03:55:59.191Z,3.78
2023-04-17T03:59:00.761Z,3.83
2023-04-17T04:02:02.673Z,3.90
2023-04-17T04:05:04.784Z,3.94
2023-04-17T04:08:06.695Z,3.82
2023-04-17T04:11:08.288Z,3.76
2023-04-17T04:14:09.947Z,3.76
2023-04-17T04:17:11.503Z,3.81
2023-04-17T04:20:13.172Z,3.88
2023-04-17T04:23:15.044Z,3.96
2023-04-17T04:26:16.617Z,4.04
2023-04-17T04:29:18.317Z,4.13
2023-04-17T04:32:19.946Z,4.19
2023-04-17T04:35:21.774Z,4.27
2023-04-17T04:38:23.542Z,4.35
2023-04-17T04:41:26.281Z,4.41
2023-04-17T04:44:27.925Z,4.47
2023-04-17T04:47:29.456Z,4.57
2023-04-17T04:50:31.899Z,4.63
2023-04-17T04:53:33.575Z,4.73
2023-04-17T04:56:35.275Z,4.87
2023-04-17T04:59:38.949Z,4.96
2023-04-17T05:02:41.049Z,5.01
2023-04-17T05:05:42.982Z,5.05
2023-04-17T05:08:44.587Z,5.18
2023-04-17T05:11:46.143Z,5.34
2023-04-17T05:14:47.779Z,5.46
2023-04-17T05:17:49.412Z,5.51
2023-04-17T05:20:51.687Z,5.56
2023-04-17T05:23:53.786Z,5.67
2023-04-17T05:26:55.425Z,5.74
2023-04-17T05:29:56.964Z,5.88
2023-04-17T05:32:58.900Z,6.04
2023-04-17T05:36:00.631Z,6.30
2023-04-17T05:39:02.317Z,6.51
2023-04-17T05:42:04.224Z,6.73
2023-04-17T05:45:06.310Z,6.96
2023-04-17T05:48:07.968Z,7.18
2023-04-17T05:51:09.623Z,7.41
2023-04-17T05:54:11.274Z,7.62
2023-04-17T05:57:12.867Z,7.82
2023-04-17T06:00:15.128Z,8.01
2023-04-17T06:03:18.265Z,8.19
2023-04-17T06:06:20.506Z,8.37
2023-04-17T06:09:23.520Z,8.54
2023-04-17T06:12:27.288Z,8.68
2023-04-17T06:15:29.092Z,8.79
2023-04-17T06:18:30.763Z,8.91
2023-04-17T06:21:32.592Z,9.03
2023-04-17T06:24:34.599Z,9.17
2023-04-17T06:27:37.267Z,9.29
2023-04-17T06:30:39.286Z,9.46
2023-04-17T06:33:40.988Z,9.58
2023-04-17T06:36:42.661Z,9.67
2023-04-17T06:39:44.300Z,9.79
2023-04-17T06:42:46.001Z,9.94
2023-04-17T06:45:48.483Z,10.16
2023-04-17T06:48:50.158Z,10.37
2023-04-17T06:51:51.756Z,10.61
2023-04-17T06:54:56.681Z,10.68
2023-04-17T06:57:58.245Z,10.39
2023-04-17T07:00:59.816Z,10.03
2023-04-17T07:04:01.618Z,9.85
2023-04-17T07:07:03.461Z,9.84
2023-04-17T07:10:06.437Z,9.83
2023-04-17T07:13:08.008Z,9.80
2023-04-17T07:16:09.688Z,9.77
2023-04-17T07:19:11.660Z,9.73
2023-04-17T07:22:13.612Z,9.70
2023-04-17T07:25:15.605Z,9.68
2023-04-17T07:28:18.032Z,9.62
2023-04-17T07:31:19.842Z,9.56
2023-04-17T07:34:21.641Z,9.51
2023-04-17T07:37:23.235Z,9.52
2023-04-17T07:40:25.181Z,9.58
2023-04-17T07:43:27.640Z,9.60
2023-04-17T07:46:29.344Z,9.61
2023-04-17T07:49:31.008Z,9.68
2023-04-17T07:52:32.720Z,9.74
2023-04-17T07:55:34.317Z,9.72
2023-04-17T07:58:36.052Z,9.72
2023-04-17T08:01:37.788Z,9.69
2023-04-17T08:04:39.778Z,9.59
2023-04-17T08:07:41.665Z,9.59
2023-04-17T08:10:43.353Z,9.64
2023-04-17T08:13:45.013Z,9.65
2023-04-17T08:16:47.493Z,9.63
2023-04-17T08:19:49.513Z,9.66
2023-04-17T08:22:51.130Z,9.73
2023-04-17T08:25:52.747Z,9.71
2023-04-17T08:28:54.461Z,9.75
2023-04-17T08:32:12.792Z,9.86
2023-04-17T08:35:16.757Z,9.99
2023-04-17T08:38:18.408Z,10.12
2023-04-17T08:41:22.073Z,10.19
2023-04-17T08:44:23.732Z,10.22
2023-04-17T08:47:25.482Z,10.26
2023-04-17T08:50:27.320Z,10.26
2023-04-17T08:53:29.052Z,10.24
2023-04-17T08:56:30.668Z,10.40
2023-04-17T08:59:32.743Z,10.62
2023-04-17T09:02:51.927Z,10.70
2023-04-17T09:05:57.224Z,10.93
2023-04-17T09:09:02.259Z,11.32
2023-04-17T09:12:08.885Z,11.68
2023-04-17T09:15:17.506Z,11.92
2023-04-17T09:18:28.023Z,12.07
2023-04-17T09:21:29.812Z,12.00
2023-04-17T09:24:35.416Z,11.82
2023-04-17T09:27:37.212Z,11.77
2023-04-17T09:30:40.440Z,11.89
2023-04-17T09:34:03.782Z,11.89
2023-04-17T09:37:05.475Z,11.86
2023-04-17T09:40:07.738Z,11.63
2023-04-17T09:43:10.292Z,11.54
2023-04-17T09:46:12.815Z,11.47
2023-04-17T09:49:38.648Z,11.36
2023-04-17T09:52:40.724Z,11.31
2023-04-17T09:55:42.634Z,11.18
2023-04-17T09:58:44.618Z,11.12
2023-04-17T10:01:46.304Z,11.16
2023-04-17T10:04:48.128Z,11.21
2023-04-17T10:07:49.942Z,11.24
2023-04-17T10:10:51.999Z,11.28
2023-04-17T10:14:04.495Z,11.34
2023-04-17T10:17:26.674Z,11.42
2023-04-17T10:20:28.625Z,11.42
2023-04-17T10:23:32.352Z,11.43
2023-04-17T10:26:34.616Z,11.36
2023-04-17T10:29:55.756Z,11.17
2023-04-17T10:33:13.058Z,11.11
2023-04-17T10:36:40.444Z,11.15
2023-04-17T10:39:50.224Z,11.18
2023-04-17T10:43:10.456Z,11.15
2023-04-17T10:46:13.279Z,11.24
2023-04-17T10:49:15.266Z,11.39
2023-04-17T10:52:32.231Z,11.47
2023-04-17T10:55:34.005Z,11.52
2023-04-17T10:58:39.878Z,11.63
2023-04-17T11:01:47.736Z,11.77
2023-04-17T11:05:06.550Z,11.90
2023-04-17T11:08:09.940Z,11.87
2023-04-17T11:11:11.609Z,11.80
2023-04-17T11:14:15.270Z,11.58
2023-04-17T11:17:17.217Z,11.40
2023-04-17T11:20:23.798Z,11.31
2023-04-17T11:23:30.296Z,11.28
2023-04-17T11:26:31.904Z,11.21
2023-04-17T11:29:33.664Z,11.08
2023-04-17T11:32:38.308Z,10.94
2023-04-17T11:35:41.811Z,10.81
2023-04-17T11:38:47.723Z,10.72
2023-04-17T11:41:51.415Z,10.64
2023-04-17T11:44:53.105Z,10.62
2023-04-17T11:47:54.865Z,10.60
2023-04-17T11:51:04.007Z,10.60
2023-04-17T11:54:05.844Z,10.59
2023-04-17T11:57:12.801Z,10.58
2023-04-17T12:00:14.951Z,10.56
2023-04-17T12:03:36.212Z,10.50
2023-04-17T12:06:38.219Z,10.30
2023-04-17T12:09:40.146Z,10.20
2023-04-17T12:12:41.753Z,10.19
2023-04-17T12:15:43.675Z,10.15
2023-04-17T12:18:45.336Z,10.12
2023-04-17T12:21:47.041Z,10.13
2023-04-17T12:24:48.793Z,10.12
2023-04-17T12:27:50.599Z,10.08
2023-04-17T12:30:52.338Z,10.05
2023-04-17T12:33:53.940Z,10.03
2023-04-17T12:36:55.693Z,10.01
2023-04-17T12:39:57.520Z,10.02
2023-04-17T12:42:59.140Z,10.01
2023-04-17T12:46:00.865Z,10.02
2023-04-17T12:49:02.696Z,9.97
2023-04-17T12:52:04.407Z,10.00
2023-04-17T12:55:06.558Z,10.12
2023-04-17T12:58:08.860Z,10.24
2023-04-17T13:01:10.652Z,10.29
2023-04-17T13:04:12.729Z,10.36
2023-04-17T13:07:14.807Z,10.44
2023-04-17T13:10:16.562Z,10.49
2023-04-17T13:13:18.221Z,10.49
2023-04-17T13:16:19.856Z,10.51
2023-04-17T13:19:21.461Z,10.51
2023-04-17T13:22:23.160Z,10.54
2023-04-17T13:25:25.018Z,10.59
2023-04-17T13:28:26.707Z,10.62
2023-04-17T13:31:28.548Z,10.53
2023-04-17T13:34:30.219Z,10.39
2023-04-17T13:37:31.882Z,10.41
2023-04-17T13:40:33.645Z,10.46
2023-04-17T13:43:35.245Z,10.50
2023-04-17T13:46:37.128Z,10.52
2023-04-17T13:49:38.881Z,10.53
2023-04-17T13:52:40.621Z,10.49
2023-04-17T13:55:42.317Z,10.43
2023-04-17T13:58:43.962Z,10.29
2023-04-17T14:01:45.718Z,10.16
2023-04-17T14:04:47.519Z,10.05
2023-04-17T14:07:49.277Z,9.97
2023-04-17T14:10:50.893Z,9.92
2023-04-17T14:13:52.457Z,9.87
2023-04-17T14:16:54.158Z,9.82
2023-04-17T14:19:55.816Z,9.80
2023-04-17T14:22:57.527Z,9.85
2023-04-17T14:25:59.141Z,9.90
2023-04-17T14:29:00.783Z,9.93
2023-04-17T14:32:02.616Z,9.85
2023-04-17T14:35:05.130Z,9.83
2023-04-17T14:38:07.392Z,9.84
2023-04-17T14:41:09.088Z,9.84
2023-04-17T14:44:10.896Z,9.83
2023-04-17T14:47:12.688Z,9.80
2023-04-17T14:50:14.509Z,9.75
2023-04-17T14:53:16.291Z,9.69
2023-04-17T14:56:18.262Z,9.64
2023-04-17T14:59:20.358Z,9.60
2023-04-17T15:02:22.209Z,9.53
2023-04-17T15:05:24.164Z,9.45
2023-04-17T15:08:25.820Z,9.46
2023-04-17T15:11:27.573Z,9.39
2023-04-17T15:14:29.225Z,9.26
2023-04-17T15:17:30.956Z,9.22
2023-04-17T15:20:33.695Z,9.24
2023-04-17T15:23:37.717Z,9.24
2023-04-17T15:26:39.394Z,9.24
2023-04-17T15:29:41.587Z,9.26
2023-04-17T15:32:44.058Z,9.28
2023-04-17T15:35:45.873Z,9.29
2023-04-17T15:38:47.535Z,9.31
2023-04-17T15:41:49.278Z,9.29
2023-04-17T15:44:51.015Z,9.17
2023-04-17T15:47:53.166Z,9.08
2023-04-17T15:50:55.378Z,9.10
2023-04-17T15:53:57.127Z,9.11
2023-04-17T15:56:58.988Z,9.13
2023-04-17T16:00:00.622Z,9.12
2023-04-17T16:03:02.473Z,9.13
2023-04-17T16:06:04.820Z,9.14
2023-04-17T16:09:06.541Z,9.14
2023-04-17T16:12:10.041Z,9.14
2023-04-17T16:15:12.815Z,9.12
2023-04-17T16:18:14.479Z,9.00
2023-04-17T16:21:16.090Z,8.99
2023-04-17T16:24:17.759Z,9.02
2023-04-17T16:27:19.576Z,9.03
2023-04-17T16:30:21.846Z,9.04
2023-04-17T16:33:23.482Z,9.04
2023-04-17T16:36:25.206Z,9.02
2023-04-17T16:39:26.953Z,8.99
2023-04-17T16:42:28.728Z,9.00
2023-04-17T16:45:30.499Z,8.98
2023-04-17T16:48:32.372Z,8.97
2023-04-17T16:51:34.240Z,8.99
2023-04-17T16:54:35.963Z,9.00
2023-04-17T16:57:37.702Z,8.79
2023-04-17T17:00:39.457Z,8.65
2023-04-17T17:03:41.563Z,8.68
2023-04-17T17:06:43.443Z,8.76
2023-04-17T17:09:45.250Z,8.65
2023-04-17T17:12:46.902Z,8.61
2023-04-17T17:15:48.949Z,8.64
2023-04-17T17:18:50.833Z,8.67
2023-04-17T17:21:52.670Z,8.71
2023-04-17T17:24:54.581Z,8.71
2023-04-17T17:27:56.325Z,8.69
2023-04-17T17:31:08.313Z,8.69
2023-04-17T17:34:25.568Z,8.70
2023-04-17T17:37:28.808Z,8.70
2023-04-17T17:40:30.450Z,8.68
2023-04-17T17:43:32.097Z,8.60
2023-04-17T17:46:33.770Z,8.50
2023-04-17T17:49:35.466Z,8.50
2023-04-17T17:52:37.158Z,8.51
2023-04-17T17:55:39.577Z,8.51
2023-04-17T17:58:41.187Z,8.50
2023-04-17T18:01:43.026Z,8.49
2023-04-17T18:04:45.065Z,8.49
2023-04-17T18:07:47.259Z,8.49
2023-04-17T18:10:48.885Z,8.48
2023-04-17T18:13:51.269Z,8.48
2023-04-17T18:16:52.965Z,8.50
2023-04-17T18:19:54.732Z,8.50
2023-04-17T18:22:56.401Z,8.40
2023-04-17T18:26:02.603Z,8.38
2023-04-17T18:29:04.558Z,8.38
2023-04-17T18:32:06.324Z,8.39
2023-04-17T18:35:08.590Z,8.39
2023-04-17T18:38:10.357Z,8.40
2023-04-17T18:41:12.063Z,8.40
2023-04-17T18:44:13.988Z,8.37
2023-04-17T18:47:15.714Z,8.35
2023-04-17T18:50:17.672Z,8.35
2023-04-17T18:53:19.536Z,8.32
2023-04-17T18:56:21.466Z,8.23
2023-04-17T18:59:23.246Z,8.24
2023-04-17T19:02:25.131Z,8.25
2023-04-17T19:05:26.923Z,8.27
2023-04-17T19:08:28.863Z,8.27
2023-04-17T19:11:31.262Z,8.26
2023-04-17T19:14:33.026Z,8.27
2023-04-17T19:17:35.068Z,8.26
2023-04-17T19:20:37.208Z,8.26
2023-04-17T19:23:38.834Z,8.25
2023-04-17T19:26:40.687Z,8.17
2023-04-17T19:29:42.948Z,8.13
2023-04-17T19:32:44.724Z,8.15
2023-04-17T19:35:46.558Z,8.18
2023-04-17T19:38:48.639Z,8.18
2023-04-17T19:41:50.641Z,8.19
2023-04-17T19:44:52.884Z,8.18
2023-04-17T19:47:54.894Z,8.19
2023-04-17T19:50:56.822Z,8.19
2023-04-17T19:53:58.880Z,8.17
2023-04-17T19:57:00.770Z,8.17
2023-04-17T20:00:02.681Z,8.20
2023-04-17T20:03:04.457Z,8.22
2023-04-17T20:06:06.383Z,8.13
2023-04-17T20:09:08.395Z,8.06
2023-04-17T20:12:10.142Z,8.06
2023-04-17T20:15:11.896Z,8.08
2023-04-17T20:18:13.647Z,8.06
2023-04-17T20:21:15.288Z,8.06
2023-04-17T20:24:16.986Z,8.08
2023-04-17T20:27:18.679Z,8.09
2023-04-17T20:30:21.260Z,8.09
2023-04-17T20:33:23.084Z,8.11
2023-04-17T20:36:24.838Z,8.18
2023-04-17T20:39:26.502Z,8.22
2023-04-17T20:42:28.105Z,8.24
2023-04-17T20:45:29.822Z,8.26
2023-04-17T20:48:31.552Z,8.28
2023-04-17T20:51:33.191Z,8.30
2023-04-17T20:54:34.960Z,8.31
2023-04-17T20:57:36.554Z,8.32
2023-04-17T21:00:44.334Z,8.33
2023-04-17T21:03:49.369Z,8.34
2023-04-17T21:06:51.245Z,8.35
2023-04-17T21:09:53.008Z,8.36
2023-04-17T21:12:54.813Z,8.36
2023-04-17T21:15:56.481Z,8.37
2023-04-17T21:18:58.160Z,8.37
2023-04-17T21:21:59.766Z,8.38
2023-04-17T21:25:01.497Z,8.38
2023-04-17T21:28:03.364Z,8.38
2023-04-17T21:31:05.047Z,8.38
2023-04-17T21:34:07.172Z,8.38
2023-04-17T21:37:08.857Z,8.37
2023-04-17T21:40:10.903Z,8.37
2023-04-17T21:43:15.516Z,8.38
2023-04-17T21:46:17.315Z,8.37
2023-04-17T21:49:20.216Z,8.38
2023-04-17T21:52:21.785Z,8.38
2023-04-17T21:55:23.489Z,8.38
2023-04-17T21:58:25.377Z,8.37
2023-04-17T22:01:27.296Z,8.38
2023-04-17T22:04:29.108Z,8.37
2023-04-17T22:07:34.055Z,8.38
2023-04-17T22:10:37.866Z,8.38
2023-04-17T22:13:39.546Z,8.38
2023-04-17T22:16:41.185Z,8.38
2023-04-17T22:19:42.795Z,8.37
2023-04-17T22:23:22.395Z,8.37
2023-04-17T22:27:01.944Z,8.37
2023-04-17T22:30:41.142Z,8.36
2023-04-17T22:34:20.750Z,8.37
2023-04-17T22:38:00.211Z,8.37
2023-04-17T22:41:39.713Z,8.38
2023-04-17T22:45:19.175Z,8.39
2023-04-17T22:48:58.633Z,8.40
2023-04-17T22:52:38.297Z,8.41
2023-04-17T22:56:17.673Z,8.42
2023-04-17T22:59:57.647Z,8.43
2023-04-17T23:03:37.216Z,8.44
2023-04-17T23:07:17.070Z,8.44
2023-04-17T23:10:19.979Z,8.43
2023-04-17T23:13:21.630Z,8.42
2023-04-17T23:16:23.234Z,8.42
2023-04-17T23:19:24.899Z,8.41
2023-04-17T23:22:26.687Z,8.41
2023-04-17T23:25:28.361Z,8.39
2023-04-17T23:28:30.250Z,8.37
2023-04-17T23:31:31.962Z,8.37
2023-04-17T23:34:33.842Z,8.35
2023-04-17T23:37:35.739Z,8.34
2023-04-17T23:40:37.461Z,8.33
2023-04-17T23:43:39.157Z,8.32
2023-04-17T23:46:40.922Z,8.30
2023-04-17T23:49:42.646Z,8.30
2023-04-17T23:52:44.522Z,8.30
2023-04-17T23:55:46.253Z,8.30
2023-04-17T23:58:48.076Z,8.30
